KASH/ASH METAR and TAF weather

Enter ICAO airport designator
Station Type Date Time Source
KASH METAR 2021/03/02 02:56 UTC NOAA

KASH 020256Z AUTO 29020G30KT 10SM SCT070 BKN085 M01/M12 A2960 RMK AO2 PK WND 29034/0221 SLP029 T10061117 53010


Station Type Date Time Source
KASH Decoded METAR 2021/03/02 02:56 UTC NOAA

Nashua, Boire Field Airport, NH, United States (KASH) 42-46-54N 071-30-53W
Mar 01, 2021 - 09:56 PM EST / 2021.03.02 0256 UTC
Wind: from the WNW (290 degrees) at 23 MPH (20 KT) gusting to 35 MPH (30 KT):0
Visibility: 10 mile(s):0
Sky conditions: mostly cloudy
Temperature: 30.9 F (-0.6 C)
Windchill: 17 F (-8 C):1
Dew Point: 10.9 F (-11.7 C)
Relative Humidity: 42%
Pressure (altimeter): 29.6 in. Hg (1002 hPa)
Pressure tendency: 0.03 inches (1.0 hPa) higher than three hours ago
ob: KASH 020256Z AUTO 29020G30KT 10SM SCT070 BKN085 M01/M12 A2960 RMK AO2 PK WND 29034/0221 SLP029 T10061117 53010
cycle: 3

Station Type Date Time Source
KASH TAF UTC NOAA

Error!

Example: see airport list